Alginet, Spain
Current Conditions -  °F | °C
As of 10:30 AM on Saturday 25 Oct 2014 (Local Time) from LEVC Reporting Station
Clear Clear  
Wind Chill: 20°   Ceiling: Unl
Heat Index: 20°   Visibility: 6mi
Dew Point:   Wind: 1mph
Humidity: 43%   Direction: NA
Pressure: 30.12"   Gusts: NA
Location:  39.27°N, 0.47°W
Report Text: LEVC 250830Z VRB01KT CAVOK 20/07 Q1020 NOSIG
Loading
Personal Weather Stations






























Interactive Weather Map
Tropical Storm Tracking
New forecast layout! Learn more

10-Day Weather Forecast

Advertisements
Track Severe Weather on mobile